createdAt,value
2023-10-10T00:01:29.487Z,89.10
2023-10-10T00:03:56.547Z,89.10
2023-10-10T00:06:25.762Z,89.10
2023-10-10T00:08:53.973Z,89.20
2023-10-10T00:11:21.574Z,89.20
2023-10-10T00:13:53.962Z,89.20
2023-10-10T00:16:32.644Z,89.20
2023-10-10T00:19:04.938Z,89.10
2023-10-10T00:21:31.831Z,89.30
2023-10-10T00:23:58.861Z,89.50
2023-10-10T00:26:27.245Z,89.20
2023-10-10T00:28:57.699Z,89.20
2023-10-10T00:31:28.472Z,89.50
2023-10-10T00:33:56.541Z,89.90
2023-10-10T00:36:29.360Z,90.00
2023-10-10T00:39:19.678Z,90.00
2023-10-10T00:41:52.479Z,90.10
2023-10-10T00:44:20.811Z,90.30
2023-10-10T00:46:57.863Z,90.30
2023-10-10T00:49:26.930Z,90.40
2023-10-10T00:52:01.044Z,90.30
2023-10-10T00:54:33.102Z,90.30
2023-10-10T00:57:01.328Z,90.30
2023-10-10T00:59:44.540Z,90.40
2023-10-10T01:02:14.005Z,90.50
2023-10-10T01:04:50.939Z,90.50
2023-10-10T01:07:22.769Z,90.60
2023-10-10T01:10:08.878Z,90.60
2023-10-10T01:12:40.715Z,90.60
2023-10-10T01:15:18.036Z,90.90
2023-10-10T01:17:46.273Z,90.50
2023-10-10T01:20:16.430Z,90.50
2023-10-10T01:22:48.079Z,90.50
2023-10-10T01:25:32.474Z,90.50
2023-10-10T01:28:03.451Z,90.50
2023-10-10T01:30:49.763Z,90.50
2023-10-10T01:33:18.121Z,90.50
2023-10-10T01:35:45.795Z,90.50
2023-10-10T01:38:35.746Z,90.50
2023-10-10T01:41:14.511Z,90.50
2023-10-10T01:43:46.923Z,90.50
2023-10-10T01:46:28.571Z,90.60
2023-10-10T01:48:56.934Z,90.60
2023-10-10T01:51:34.398Z,90.70
2023-10-10T01:54:15.482Z,90.70
2023-10-10T01:56:44.105Z,90.70
2023-10-10T01:59:15.171Z,90.70
2023-10-10T02:01:43.264Z,90.70
2023-10-10T02:04:11.872Z,90.80
2023-10-10T02:06:46.453Z,90.80
2023-10-10T02:09:19.689Z,90.90
2023-10-10T02:11:55.823Z,90.90
2023-10-10T02:14:31.922Z,91.00
2023-10-10T02:17:08.045Z,91.00
2023-10-10T02:19:40.959Z,91.00
2023-10-10T02:22:24.009Z,90.90
2023-10-10T02:25:10.137Z,90.70
2023-10-10T02:27:54.812Z,90.80
2023-10-10T02:30:36.095Z,90.90
2023-10-10T02:33:23.540Z,91.00
2023-10-10T02:35:58.363Z,91.10
2023-10-10T02:38:33.775Z,91.10
2023-10-10T02:41:30.561Z,91.20
2023-10-10T02:44:11.341Z,91.30
2023-10-10T02:46:42.296Z,91.30
2023-10-10T02:49:15.297Z,91.40
2023-10-10T02:51:49.636Z,91.50
2023-10-10T02:54:37.975Z,91.50
2023-10-10T02:57:26.859Z,91.60
2023-10-10T03:00:22.407Z,91.60
2023-10-10T03:02:55.929Z,91.40
2023-10-10T03:05:41.818Z,91.40
2023-10-10T03:08:17.063Z,91.30
2023-10-10T03:10:54.770Z,91.30
2023-10-10T03:13:29.792Z,91.40
2023-10-10T03:16:20.577Z,91.50
2023-10-10T03:19:03.032Z,91.50
2023-10-10T03:21:49.856Z,91.50
2023-10-10T03:24:29.126Z,91.50
2023-10-10T03:27:22.494Z,91.50
2023-10-10T03:29:51.297Z,91.70
2023-10-10T03:32:20.985Z,91.70
2023-10-10T03:35:14.648Z,91.70
2023-10-10T03:37:43.932Z,91.80
2023-10-10T03:40:50.279Z,91.80
2023-10-10T03:43:35.660Z,91.80
2023-10-10T03:46:23.084Z,91.70
2023-10-10T03:49:08.436Z,91.70
2023-10-10T03:51:54.073Z,91.40
2023-10-10T03:54:39.819Z,91.30
2023-10-10T03:57:25.290Z,91.30
2023-10-10T04:00:10.809Z,91.40
2023-10-10T04:02:59.455Z,91.50
2023-10-10T04:05:46.712Z,91.60
2023-10-10T04:08:32.441Z,91.60
2023-10-10T04:11:18.086Z,91.70
2023-10-10T04:14:14.315Z,91.80
2023-10-10T04:17:00.878Z,91.80
2023-10-10T04:19:46.485Z,91.70
2023-10-10T04:22:31.968Z,91.70
2023-10-10T04:25:18.094Z,91.60
2023-10-10T04:28:03.514Z,91.40
2023-10-10T04:30:48.804Z,91.20
2023-10-10T04:33:34.361Z,91.20
2023-10-10T04:36:19.951Z,91.20
2023-10-10T04:39:05.299Z,91.30
2023-10-10T04:41:50.967Z,91.40
2023-10-10T04:44:36.390Z,91.50
2023-10-10T04:47:21.816Z,91.60
2023-10-10T04:50:07.288Z,91.60
2023-10-10T04:52:53.535Z,91.60
2023-10-10T04:55:39.074Z,91.70
2023-10-10T04:58:24.644Z,91.70
2023-10-10T05:01:10.299Z,91.70
2023-10-10T05:03:55.889Z,91.80
2023-10-10T05:06:41.336Z,91.70
2023-10-10T05:09:26.717Z,91.70
2023-10-10T05:12:13.175Z,91.60
2023-10-10T05:14:58.584Z,91.60
2023-10-10T05:17:44.361Z,91.60
2023-10-10T05:20:32.002Z,91.70
2023-10-10T05:23:17.658Z,91.60
2023-10-10T05:25:44.736Z,91.60
2023-10-10T05:28:12.258Z,91.60
2023-10-10T05:30:44.401Z,91.70
2023-10-10T05:33:13.857Z,91.80
2023-10-10T05:35:45.516Z,91.80
2023-10-10T05:38:12.610Z,91.70
2023-10-10T05:40:39.914Z,91.60
2023-10-10T05:43:17.141Z,91.50
2023-10-10T05:45:45.226Z,91.50
2023-10-10T05:48:13.574Z,91.60
2023-10-10T05:50:44.030Z,91.70
2023-10-10T05:53:11.399Z,91.70
2023-10-10T05:55:39.477Z,91.70
2023-10-10T05:58:07.225Z,91.70
2023-10-10T06:00:38.057Z,91.70
2023-10-10T06:03:08.598Z,91.80
2023-10-10T06:05:36.369Z,91.90
2023-10-10T06:08:06.072Z,91.90
2023-10-10T06:10:34.143Z,91.90
2023-10-10T06:13:08.481Z,91.90
2023-10-10T06:15:36.615Z,91.90
2023-10-10T06:18:19.576Z,91.90
2023-10-10T06:21:03.079Z,91.90
2023-10-10T06:23:38.645Z,91.80
2023-10-10T06:26:08.164Z,91.70
2023-10-10T06:28:46.232Z,91.70
2023-10-10T06:31:22.330Z,91.60
2023-10-10T06:33:53.678Z,91.40
2023-10-10T06:36:24.255Z,91.30
2023-10-10T06:39:00.852Z,91.30
2023-10-10T06:41:29.340Z,91.20
2023-10-10T06:43:58.748Z,91.00
2023-10-10T06:46:33.549Z,90.90
2023-10-10T06:49:05.795Z,90.80
2023-10-10T06:51:34.775Z,90.70
2023-10-10T06:54:04.784Z,90.50
2023-10-10T06:56:46.898Z,90.40
2023-10-10T06:59:22.082Z,90.30
2023-10-10T07:01:49.806Z,90.20
2023-10-10T07:04:17.877Z,90.10
2023-10-10T07:06:52.782Z,90.00
2023-10-10T07:09:30.045Z,89.80
2023-10-10T07:12:00.649Z,89.50
2023-10-10T07:14:27.746Z,88.90
2023-10-10T07:16:58.565Z,88.20
2023-10-10T07:19:31.545Z,87.30
2023-10-10T07:22:01.340Z,86.50
2023-10-10T07:24:42.175Z,85.90
2023-10-10T07:27:12.541Z,85.00
2023-10-10T07:29:46.117Z,84.30
2023-10-10T07:32:18.940Z,83.50
2023-10-10T07:34:52.668Z,82.30
2023-10-10T07:37:20.221Z,82.20
2023-10-10T07:39:56.569Z,81.80
2023-10-10T07:42:29.066Z,81.30
2023-10-10T07:44:59.708Z,80.70
2023-10-10T07:47:28.619Z,79.70
2023-10-10T07:49:56.865Z,78.90
2023-10-10T07:52:24.054Z,78.60
2023-10-10T07:54:55.342Z,77.80
2023-10-10T07:57:29.857Z,77.30
2023-10-10T07:59:59.567Z,76.80
2023-10-10T08:02:33.390Z,76.20
2023-10-10T08:05:11.103Z,75.70
2023-10-10T08:07:38.663Z,75.10
2023-10-10T08:10:15.557Z,74.20
2023-10-10T08:12:44.077Z,73.60
2023-10-10T08:15:20.999Z,73.00
2023-10-10T08:17:55.919Z,72.10
2023-10-10T08:20:36.199Z,72.10
2023-10-10T08:23:06.609Z,71.80
2023-10-10T08:25:34.502Z,71.50
2023-10-10T08:28:01.974Z,71.50
2023-10-10T08:30:29.062Z,71.40
2023-10-10T08:32:57.421Z,70.80
2023-10-10T08:35:25.376Z,70.50
2023-10-10T08:37:52.433Z,70.10
2023-10-10T08:40:23.088Z,69.50
2023-10-10T08:42:53.872Z,69.00
2023-10-10T08:45:23.638Z,68.90
2023-10-10T08:47:53.930Z,69.00
2023-10-10T08:50:24.789Z,68.40
2023-10-10T08:52:53.137Z,68.40
2023-10-10T08:55:29.452Z,68.90
2023-10-10T08:57:57.025Z,67.90
2023-10-10T09:00:28.502Z,68.20
2023-10-10T09:02:59.709Z,67.90
2023-10-10T09:05:30.603Z,67.40
2023-10-10T09:08:07.539Z,66.40
2023-10-10T09:10:43.346Z,66.20
2023-10-10T09:13:11.300Z,66.70
2023-10-10T09:15:42.097Z,66.80
2023-10-10T09:18:15.350Z,66.60
2023-10-10T09:20:46.094Z,66.50
2023-10-10T09:23:24.476Z,66.60
2023-10-10T09:25:59.289Z,66.10
2023-10-10T09:28:32.152Z,66.20
2023-10-10T09:31:13.979Z,66.10
2023-10-10T09:33:46.953Z,66.20
2023-10-10T09:36:21.091Z,66.10
2023-10-10T09:38:49.649Z,65.20
2023-10-10T09:41:34.694Z,65.20
2023-10-10T09:44:22.873Z,65.00
2023-10-10T09:47:05.074Z,64.80
2023-10-10T09:50:01.654Z,63.90
2023-10-10T09:52:51.256Z,63.80
2023-10-10T09:55:27.070Z,63.70
2023-10-10T09:58:02.608Z,63.40
2023-10-10T10:00:37.947Z,63.10
2023-10-10T10:03:28.774Z,63.00
2023-10-10T10:06:49.356Z,62.50
2023-10-10T10:10:10.617Z,62.50
2023-10-10T10:13:27.716Z,62.90
2023-10-10T10:16:26.639Z,61.30
2023-10-10T10:18:53.803Z,61.70
2023-10-10T10:21:28.939Z,61.80
2023-10-10T10:24:16.577Z,61.10
2023-10-10T10:26:45.340Z,60.80
2023-10-10T10:29:17.481Z,60.30
2023-10-10T10:32:09.952Z,59.70
2023-10-10T10:34:50.173Z,59.20
2023-10-10T10:37:30.834Z,59.50
2023-10-10T10:40:11.709Z,59.30
2023-10-10T10:42:57.060Z,59.20
2023-10-10T10:45:36.257Z,58.60
2023-10-10T10:48:20.341Z,57.70
2023-10-10T10:51:03.207Z,57.20
2023-10-10T10:53:40.123Z,56.90
2023-10-10T10:56:28.272Z,55.60
2023-10-10T10:59:22.719Z,55.40
2023-10-10T11:01:58.943Z,55.40
2023-10-10T11:04:38.694Z,55.00
2023-10-10T11:07:09.197Z,55.50
2023-10-10T11:09:54.218Z,55.20
2023-10-10T11:12:33.624Z,54.50
2023-10-10T11:15:16.351Z,54.80
2023-10-10T11:18:09.617Z,54.20
2023-10-10T11:21:04.590Z,54.20
2023-10-10T11:23:44.390Z,54.60
2023-10-10T11:26:16.452Z,53.50
2023-10-10T11:28:50.741Z,53.70
2023-10-10T11:31:35.532Z,54.10
2023-10-10T11:34:16.951Z,53.60
2023-10-10T11:36:45.697Z,53.80
2023-10-10T11:39:41.237Z,53.60
2023-10-10T11:42:15.882Z,53.40
2023-10-10T11:44:43.558Z,53.30
2023-10-10T11:47:26.452Z,53.90
2023-10-10T11:50:13.245Z,54.30
2023-10-10T11:53:04.103Z,54.20
2023-10-10T11:55:31.788Z,53.30
2023-10-10T11:58:08.742Z,53.30
2023-10-10T12:01:06.528Z,53.40
2023-10-10T12:03:44.399Z,53.20
2023-10-10T12:06:23.365Z,53.20
2023-10-10T12:08:55.081Z,52.90
2023-10-10T12:11:28.184Z,52.00
2023-10-10T12:14:00.497Z,52.20
2023-10-10T12:16:31.248Z,52.40
2023-10-10T12:19:03.385Z,52.40
2023-10-10T12:21:39.307Z,52.50
2023-10-10T12:24:07.986Z,51.80
2023-10-10T12:26:55.133Z,52.10
2023-10-10T12:29:35.377Z,51.70
2023-10-10T12:32:17.131Z,52.00
2023-10-10T12:41:49.729Z,52.00
2023-10-10T12:47:20.174Z,52.20
2023-10-10T12:50:22.573Z,52.00
2023-10-10T12:53:03.492Z,51.70
2023-10-10T12:55:51.425Z,51.80
2023-10-10T12:58:25.204Z,50.70
2023-10-10T13:01:00.530Z,50.90
2023-10-10T13:04:09.922Z,51.40
2023-10-10T13:06:44.176Z,51.20
2023-10-10T13:09:35.345Z,51.10
2023-10-10T13:12:05.590Z,51.60
2023-10-10T13:14:35.421Z,52.10
2023-10-10T13:17:39.602Z,52.70
2023-10-10T13:20:45.996Z,51.70
2023-10-10T13:23:26.467Z,51.20
2023-10-10T13:26:03.954Z,51.50
2023-10-10T13:28:38.421Z,51.70
2023-10-10T13:31:05.817Z,52.00
2023-10-10T13:33:36.311Z,52.10
2023-10-10T13:36:25.063Z,52.20
2023-10-10T13:39:45.361Z,51.60
2023-10-10T13:42:17.677Z,51.30
2023-10-10T13:44:49.278Z,51.20
2023-10-10T13:47:20.983Z,51.40
2023-10-10T13:50:10.310Z,51.20
2023-10-10T13:53:31.515Z,51.40
2023-10-10T13:56:23.365Z,51.50
2023-10-10T13:59:14.235Z,51.70
2023-10-10T14:01:46.492Z,51.10
2023-10-10T14:04:28.883Z,51.70
2023-10-10T14:07:13.400Z,52.20
2023-10-10T14:10:03.032Z,52.90
2023-10-10T14:12:36.329Z,52.50
2023-10-10T14:15:13.720Z,51.70
2023-10-10T14:17:51.754Z,51.20
2023-10-10T14:20:24.584Z,51.50
2023-10-10T14:22:56.174Z,51.70
2023-10-10T14:25:25.100Z,51.70
2023-10-10T14:28:02.828Z,51.10
2023-10-10T14:30:45.631Z,51.20
2023-10-10T14:33:26.242Z,51.50
2023-10-10T14:36:03.509Z,51.40
2023-10-10T14:38:37.740Z,51.70
2023-10-10T14:41:08.643Z,51.70
2023-10-10T14:43:40.971Z,52.10
2023-10-10T14:46:13.564Z,51.30
2023-10-10T14:48:42.865Z,51.30
2023-10-10T14:51:18.540Z,51.10
2023-10-10T14:53:53.911Z,51.30
2023-10-10T14:56:36.466Z,51.40
2023-10-10T14:59:13.444Z,51.40
2023-10-10T15:01:43.073Z,52.00
2023-10-10T15:04:14.609Z,51.80
2023-10-10T15:06:44.619Z,51.90
2023-10-10T15:09:25.627Z,52.20
2023-10-10T15:12:01.088Z,52.20
2023-10-10T15:14:34.410Z,52.40
2023-10-10T15:17:09.971Z,52.90
2023-10-10T15:19:49.343Z,53.30
2023-10-10T15:22:21.856Z,52.90
2023-10-10T15:25:03.507Z,52.90
2023-10-10T15:27:31.688Z,52.80
2023-10-10T15:30:15.717Z,53.00
2023-10-10T15:32:49.876Z,53.60
2023-10-10T15:35:21.109Z,53.90
2023-10-10T15:37:53.883Z,53.90
2023-10-10T15:40:25.802Z,53.90
2023-10-10T15:43:26.436Z,54.90
2023-10-10T15:46:02.349Z,54.80
2023-10-10T15:48:30.373Z,55.00
2023-10-10T15:51:03.865Z,54.70
2023-10-10T15:53:45.217Z,53.90
2023-10-10T15:56:14.531Z,53.10
2023-10-10T15:58:57.443Z,53.80
2023-10-10T16:01:33.312Z,54.50
2023-10-10T16:04:06.837Z,55.00
2023-10-10T16:06:37.553Z,55.70
2023-10-10T16:09:15.686Z,56.30
2023-10-10T16:11:44.994Z,57.90
2023-10-10T16:14:16.109Z,59.50
2023-10-10T16:16:47.698Z,60.50
2023-10-10T16:19:27.726Z,61.40
2023-10-10T16:21:57.345Z,61.90
2023-10-10T16:24:27.662Z,62.60
2023-10-10T16:27:02.797Z,63.10
2023-10-10T16:29:40.602Z,63.50
2023-10-10T16:32:20.223Z,63.70
2023-10-10T16:34:48.684Z,64.00
2023-10-10T16:37:20.257Z,64.40
2023-10-10T16:39:48.310Z,64.80
2023-10-10T16:42:20.782Z,65.20
2023-10-10T16:44:55.184Z,65.40
2023-10-10T16:47:27.192Z,65.80
2023-10-10T16:50:01.192Z,66.10
2023-10-10T16:52:29.873Z,66.30
2023-10-10T16:55:00.990Z,66.60
2023-10-10T16:57:38.717Z,66.90
2023-10-10T17:00:14.658Z,67.20
2023-10-10T17:02:42.435Z,67.90
2023-10-10T17:05:13.302Z,68.30
2023-10-10T17:07:49.930Z,68.60
2023-10-10T17:10:25.824Z,69.20
2023-10-10T17:12:56.955Z,69.40
2023-10-10T17:15:24.698Z,69.80
2023-10-10T17:17:54.841Z,70.10
2023-10-10T17:20:26.363Z,70.30
2023-10-10T17:22:54.289Z,70.60
2023-10-10T17:25:22.066Z,70.80
2023-10-10T17:27:55.110Z,71.10
2023-10-10T17:30:30.150Z,71.40
2023-10-10T17:32:57.821Z,71.70
2023-10-10T17:35:32.833Z,71.90
2023-10-10T17:38:03.364Z,72.10
2023-10-10T17:40:33.337Z,72.40
2023-10-10T17:43:04.876Z,72.60
2023-10-10T17:45:35.865Z,72.80
2023-10-10T17:48:07.174Z,73.10
2023-10-10T17:50:41.522Z,73.20
2023-10-10T17:53:13.430Z,73.50
2023-10-10T17:55:45.035Z,73.70
2023-10-10T17:58:16.331Z,74.10
2023-10-10T18:00:57.603Z,74.20
2023-10-10T18:03:25.367Z,74.60
2023-10-10T18:05:55.183Z,74.70
2023-10-10T18:08:31.380Z,74.90
2023-10-10T18:11:07.352Z,75.00
2023-10-10T18:13:34.673Z,75.10
2023-10-10T18:16:10.670Z,75.20
2023-10-10T18:18:44.054Z,75.20
2023-10-10T18:21:16.787Z,75.50
2023-10-10T18:23:44.581Z,75.80
2023-10-10T18:26:13.909Z,76.00
2023-10-10T18:28:47.112Z,76.30
2023-10-10T18:31:36.290Z,76.50
2023-10-10T18:34:06.935Z,77.10
2023-10-10T18:36:38.741Z,77.20
2023-10-10T18:39:16.520Z,77.40
2023-10-10T18:41:47.653Z,77.60
2023-10-10T18:44:17.747Z,78.20
2023-10-10T18:46:52.176Z,78.30
2023-10-10T18:49:27.870Z,78.70
2023-10-10T18:52:13.710Z,79.30
2023-10-10T18:54:50.805Z,80.00
2023-10-10T18:57:18.457Z,80.60
2023-10-10T18:59:51.132Z,81.00
2023-10-10T19:02:18.498Z,81.50
2023-10-10T19:04:49.937Z,81.90
2023-10-10T19:07:17.479Z,82.30
2023-10-10T19:09:45.821Z,82.60
2023-10-10T19:12:17.174Z,82.80
2023-10-10T19:14:47.527Z,82.90
2023-10-10T19:17:19.913Z,83.00
2023-10-10T19:19:47.624Z,83.20
2023-10-10T19:22:20.607Z,83.30
2023-10-10T19:24:50.156Z,83.40
2023-10-10T19:27:22.522Z,83.60
2023-10-10T19:29:55.355Z,83.70
2023-10-10T19:32:23.014Z,84.00
2023-10-10T19:34:50.737Z,84.30
2023-10-10T19:37:23.779Z,84.50
2023-10-10T19:39:54.677Z,84.80
2023-10-10T19:42:23.142Z,85.00
2023-10-10T19:47:36.343Z,85.50
2023-10-10T19:50:10.016Z,85.90
2023-10-10T19:52:45.013Z,86.40
2023-10-10T19:55:21.991Z,86.70
2023-10-10T19:57:53.193Z,87.10
2023-10-10T20:00:22.008Z,87.40
2023-10-10T20:02:57.421Z,87.70
2023-10-10T20:05:29.237Z,88.10
2023-10-10T20:07:59.586Z,88.50
2023-10-10T20:10:27.199Z,88.80
2023-10-10T20:12:58.518Z,89.00
2023-10-10T20:15:29.636Z,89.40
2023-10-10T20:17:59.222Z,89.60
2023-10-10T20:20:28.162Z,90.00
2023-10-10T20:23:01.453Z,90.00
2023-10-10T20:25:35.786Z,90.20
2023-10-10T20:28:08.738Z,90.50
2023-10-10T20:30:47.097Z,90.60
2023-10-10T20:33:17.882Z,90.80
2023-10-10T20:35:46.249Z,90.80
2023-10-10T20:38:21.057Z,90.90
2023-10-10T20:40:53.765Z,91.00
2023-10-10T20:43:22.892Z,91.00
2023-10-10T20:45:54.385Z,91.00
2023-10-10T20:48:24.886Z,91.00
2023-10-10T20:50:52.656Z,91.10
2023-10-10T20:53:21.106Z,91.20
2023-10-10T20:55:51.091Z,91.30
2023-10-10T20:58:20.038Z,91.40
2023-10-10T21:00:47.671Z,91.30
2023-10-10T21:03:15.681Z,91.30
2023-10-10T21:05:46.157Z,91.30
2023-10-10T21:08:13.589Z,91.30
2023-10-10T21:10:46.524Z,91.40
2023-10-10T21:13:17.154Z,91.50
2023-10-10T21:15:45.679Z,91.70
2023-10-10T21:18:18.246Z,91.80
2023-10-10T21:21:02.291Z,91.80
2023-10-10T21:23:30.155Z,92.30
2023-10-10T21:26:00.416Z,92.10
2023-10-10T21:28:28.542Z,92.10
2023-10-10T21:30:55.943Z,92.20
2023-10-10T21:33:25.093Z,92.20
2023-10-10T21:35:53.486Z,92.20
2023-10-10T21:38:22.017Z,92.10
2023-10-10T21:40:50.892Z,92.00
2023-10-10T21:43:19.143Z,92.10
2023-10-10T21:45:46.428Z,92.10
2023-10-10T21:48:15.266Z,92.20
2023-10-10T21:50:42.705Z,92.30
2023-10-10T21:53:12.925Z,92.40
2023-10-10T21:55:42.025Z,92.40
2023-10-10T21:58:10.919Z,92.50
2023-10-10T22:00:38.352Z,92.50
2023-10-10T22:03:06.646Z,92.60
2023-10-10T22:05:36.408Z,92.80
2023-10-10T22:08:08.774Z,92.90
2023-10-10T22:10:37.135Z,93.00
2023-10-10T22:13:08.251Z,93.00
2023-10-10T22:15:37.414Z,93.10
2023-10-10T22:18:08.261Z,93.20
2023-10-10T22:20:36.233Z,93.30
2023-10-10T22:23:06.520Z,93.40
2023-10-10T22:25:38.925Z,93.60
2023-10-10T22:28:06.868Z,93.70
2023-10-10T22:30:38.834Z,93.70
2023-10-10T22:33:12.824Z,93.80
2023-10-10T22:35:45.491Z,93.90
2023-10-10T22:38:14.689Z,94.00
2023-10-10T22:40:43.981Z,94.20
2023-10-10T22:43:18.291Z,94.30
2023-10-10T22:45:50.295Z,94.30
2023-10-10T22:48:18.396Z,94.40
2023-10-10T22:50:47.106Z,94.50
2023-10-10T22:53:17.160Z,94.60
2023-10-10T22:55:45.019Z,94.60
2023-10-10T22:58:16.810Z,94.70
2023-10-10T23:00:44.522Z,94.80
2023-10-10T23:03:14.098Z,94.90
2023-10-10T23:05:44.427Z,95.10
2023-10-10T23:08:14.544Z,95.10
2023-10-10T23:10:52.260Z,95.20
2023-10-10T23:13:20.348Z,95.30
2023-10-10T23:15:51.493Z,95.40
2023-10-10T23:18:19.788Z,95.60
2023-10-10T23:20:48.163Z,95.70
2023-10-10T23:23:18.104Z,95.70
2023-10-10T23:25:52.474Z,95.90
2023-10-10T23:28:19.901Z,96.00
2023-10-10T23:30:47.595Z,96.20
2023-10-10T23:33:17.762Z,96.30
2023-10-10T23:35:52.769Z,96.40
2023-10-10T23:38:26.807Z,96.50
2023-10-10T23:41:00.742Z,96.60
2023-10-10T23:43:29.976Z,96.80
2023-10-10T23:46:05.729Z,96.90
2023-10-10T23:48:36.176Z,97.10
2023-10-10T23:51:10.479Z,97.20
2023-10-10T23:53:38.361Z,97.20
2023-10-10T23:56:06.883Z,97.20
2023-10-10T23:58:37.078Z,97.40
